LKLT weather

Letňany Airport
Letňany, Prague (capital city), Czech Republic

Public forecast

Using degrees Celsius for public forecast. Weather courtesy of forecast.io.

Closest aviation weather report (METAR) to Letňany Airport

Closest report is Kbely Air Base, 0.9 nm (1.7 km) SE. Retrieved 2019/11/11 20:00 UTC (12 minutes ago):

LKKB 112000Z 09003KT 050V110 6000 OVC019 03/03 Q1008 NOSIG

Closest aviation forecast (TAF) to Letňany Airport

Closest forecast is Kbely Air Base, 0.9 nm (1.7 km) SE. Retrieved 2019/11/11 18:00 UTC (2 hours ago):

TAF LKKB 111700Z 1118/1218 04005KT 1500 BR BKN003 TEMPO 1118/1122 0600 FG BKN003 PROB30 TEMPO 1118/1203 0200 FG VV002 BECMG 1204/1206 3500 BR BKN004 BECMG 1206/1208 21008KT 2000 RA BR BKN006 PROB30 TEMPO 1209/1218 1200 RA BR BKN002